createdAt,value
2017-09-15T00:00:29.721Z,1008.6
2017-09-15T00:01:31.138Z,1008.6
2017-09-15T00:02:32.554Z,1008.6
2017-09-15T00:03:33.966Z,1008.6
2017-09-15T00:04:35.382Z,1008.6
2017-09-15T00:05:36.798Z,1008.6
2017-09-15T00:06:38.213Z,1008.7
2017-09-15T00:07:39.629Z,1008.6
2017-09-15T00:08:41.044Z,1008.6
2017-09-15T00:09:42.462Z,1008.6
2017-09-15T00:10:43.878Z,1008.7
2017-09-15T00:11:45.296Z,1008.7
2017-09-15T00:12:46.715Z,1008.7
2017-09-15T00:13:48.132Z,1008.7
2017-09-15T00:14:49.548Z,1008.7
2017-09-15T00:15:50.963Z,1008.7
2017-09-15T00:16:52.381Z,1008.7
2017-09-15T00:17:53.796Z,1008.7
2017-09-15T00:18:55.211Z,1008.7
2017-09-15T00:19:56.626Z,1008.7
2017-09-15T00:20:58.040Z,1008.7
2017-09-15T00:21:59.458Z,1008.7
2017-09-15T00:23:00.876Z,1008.7
2017-09-15T00:24:02.292Z,1008.6
2017-09-15T00:25:03.708Z,1008.6
2017-09-15T00:26:05.127Z,1008.6
2017-09-15T00:27:06.543Z,1008.6
2017-09-15T00:28:07.961Z,1008.6
2017-09-15T00:29:09.374Z,1008.6
2017-09-15T00:30:10.794Z,1008.7
2017-09-15T00:31:12.211Z,1008.6
2017-09-15T00:32:13.629Z,1008.7
2017-09-15T00:33:15.047Z,1008.7
2017-09-15T00:34:16.465Z,1008.7
2017-09-15T00:35:17.882Z,1008.6
2017-09-15T00:36:19.299Z,1008.7
2017-09-15T00:37:20.715Z,1008.7
2017-09-15T00:38:22.130Z,1008.7
2017-09-15T00:39:23.549Z,1008.7
2017-09-15T00:40:24.963Z,1008.6
2017-09-15T00:41:26.379Z,1008.7
2017-09-15T00:42:27.796Z,1008.7
2017-09-15T00:43:29.212Z,1008.7
2017-09-15T00:44:30.631Z,1008.7
2017-09-15T00:45:32.050Z,1008.7
2017-09-15T00:46:33.464Z,1008.7
2017-09-15T00:47:34.881Z,1008.7
2017-09-15T00:48:36.295Z,1008.7
2017-09-15T00:49:37.711Z,1008.7
2017-09-15T00:50:39.128Z,1008.7
2017-09-15T00:51:40.546Z,1008.7
2017-09-15T00:52:41.963Z,1008.7
2017-09-15T00:53:43.380Z,1008.7
2017-09-15T00:54:44.795Z,1008.7
2017-09-15T00:55:46.214Z,1008.8
2017-09-15T00:56:47.626Z,1008.8
2017-09-15T00:57:49.043Z,1008.7
2017-09-15T00:58:50.455Z,1008.7
2017-09-15T00:59:51.875Z,1008.7
2017-09-15T01:00:53.290Z,1008.8
2017-09-15T01:01:54.705Z,1008.8
2017-09-15T01:02:56.119Z,1008.8
2017-09-15T01:03:57.535Z,1008.8
2017-09-15T01:04:58.952Z,1008.8
2017-09-15T01:06:00.386Z,1008.8
2017-09-15T01:07:01.804Z,1008.8
2017-09-15T01:08:03.220Z,1008.8
2017-09-15T01:09:04.639Z,1008.8
2017-09-15T01:10:06.055Z,1008.8
2017-09-15T01:11:07.471Z,1008.8
2017-09-15T01:12:08.889Z,1008.7
2017-09-15T01:13:10.305Z,1008.8
2017-09-15T01:14:11.723Z,1008.8
2017-09-15T01:15:13.138Z,1008.8
2017-09-15T01:16:14.554Z,1008.8
2017-09-15T01:17:15.970Z,1008.8
2017-09-15T01:18:17.387Z,1008.8
2017-09-15T01:19:18.802Z,1008.8
2017-09-15T01:20:20.218Z,1008.8
2017-09-15T01:21:21.631Z,1008.8
2017-09-15T01:22:23.050Z,1008.8
2017-09-15T01:23:24.469Z,1008.7
2017-09-15T01:24:25.879Z,1008.7
2017-09-15T01:25:27.294Z,1008.7
2017-09-15T01:26:28.714Z,1008.7
2017-09-15T01:27:30.126Z,1008.7
2017-09-15T01:28:31.544Z,1008.7
2017-09-15T01:29:32.959Z,1008.7
2017-09-15T01:30:34.380Z,1008.8
2017-09-15T01:31:35.796Z,1008.7
2017-09-15T01:32:37.214Z,1008.8
2017-09-15T01:33:38.629Z,1008.8
2017-09-15T01:34:40.045Z,1008.7
2017-09-15T01:35:41.462Z,1008.8
2017-09-15T01:36:42.877Z,1008.8
2017-09-15T01:37:44.292Z,1008.7
2017-09-15T01:38:45.708Z,1008.8
2017-09-15T01:39:47.124Z,1008.8
2017-09-15T01:40:48.541Z,1008.8
2017-09-15T01:41:49.970Z,1008.8
2017-09-15T01:42:51.382Z,1008.8
2017-09-15T01:43:52.795Z,1008.8
2017-09-15T01:44:54.213Z,1008.8
2017-09-15T01:45:55.631Z,1008.8
2017-09-15T01:46:57.047Z,1008.8
2017-09-15T01:47:58.465Z,1008.7
2017-09-15T01:48:59.883Z,1008.8
2017-09-15T01:50:01.312Z,1008.8
2017-09-15T01:51:02.728Z,1008.7
2017-09-15T01:52:04.147Z,1008.8
2017-09-15T01:53:05.566Z,1008.7
2017-09-15T01:54:06.978Z,1008.7
2017-09-15T01:55:08.391Z,1008.7
2017-09-15T01:56:09.809Z,1008.7
2017-09-15T01:57:11.224Z,1008.7
2017-09-15T01:58:12.639Z,1008.7
2017-09-15T01:59:14.053Z,1008.7
2017-09-15T02:00:15.468Z,1008.7
2017-09-15T02:01:16.884Z,1008.7
2017-09-15T02:02:18.300Z,1008.7
2017-09-15T02:03:19.736Z,1008.6
2017-09-15T02:04:21.150Z,1008.6
2017-09-15T02:05:22.570Z,1008.6
2017-09-15T02:06:23.985Z,1008.6
2017-09-15T02:07:25.401Z,1008.7
2017-09-15T02:08:26.816Z,1008.6
2017-09-15T02:09:28.230Z,1008.6
2017-09-15T02:10:29.647Z,1008.6
2017-09-15T02:11:31.064Z,1008.6
2017-09-15T02:12:32.479Z,1008.6
2017-09-15T02:13:33.903Z,1008.6
2017-09-15T02:14:35.322Z,1008.5
2017-09-15T02:15:36.737Z,1008.5
2017-09-15T02:16:38.154Z,1008.5
2017-09-15T02:17:39.569Z,1008.5
2017-09-15T02:18:40.991Z,1008.5
2017-09-15T02:19:42.406Z,1008.5
2017-09-15T02:20:43.819Z,1008.4
2017-09-15T02:21:45.236Z,1008.4
2017-09-15T02:22:46.656Z,1008.4
2017-09-15T02:23:48.070Z,1008.4
2017-09-15T02:24:49.484Z,1008.4
2017-09-15T02:25:50.901Z,1008.4
2017-09-15T02:26:52.314Z,1008.4
2017-09-15T02:27:53.727Z,1008.4
2017-09-15T02:28:55.149Z,1008.4
2017-09-15T02:29:56.560Z,1008.4
2017-09-15T02:30:58.058Z,1008.4
2017-09-15T02:31:59.481Z,1008.4
2017-09-15T02:33:00.895Z,1008.4
2017-09-15T02:34:02.310Z,1008.4
2017-09-15T02:35:03.728Z,1008.5
2017-09-15T02:36:05.163Z,1008.4
2017-09-15T02:37:06.578Z,1008.4
2017-09-15T02:38:07.994Z,1008.4
2017-09-15T02:39:09.409Z,1008.4
2017-09-15T02:40:10.828Z,1008.4
2017-09-15T02:41:12.243Z,1008.4
2017-09-15T02:42:13.659Z,1008.4
2017-09-15T02:43:15.073Z,1008.4
2017-09-15T02:44:16.488Z,1008.4
2017-09-15T02:45:17.903Z,1008.4
2017-09-15T02:46:19.319Z,1008.4
2017-09-15T02:47:20.733Z,1008.4
2017-09-15T02:48:22.150Z,1008.5
2017-09-15T02:49:23.565Z,1008.4
2017-09-15T02:50:24.981Z,1008.4
2017-09-15T02:51:26.400Z,1008.4
2017-09-15T02:52:27.817Z,1008.4
2017-09-15T02:53:29.236Z,1008.4
2017-09-15T02:54:30.652Z,1008.4
2017-09-15T02:55:32.070Z,1008.4
2017-09-15T02:56:33.483Z,1008.4
2017-09-15T02:57:34.901Z,1008.4
2017-09-15T02:58:36.315Z,1008.4
2017-09-15T02:59:37.730Z,1008.4
2017-09-15T03:00:39.145Z,1008.4
2017-09-15T03:01:40.568Z,1008.4
2017-09-15T03:02:41.982Z,1008.4
2017-09-15T03:03:43.396Z,1008.4
2017-09-15T03:04:44.813Z,1008.4
2017-09-15T03:05:46.228Z,1008.4
2017-09-15T03:06:47.643Z,1008.4
2017-09-15T03:07:49.056Z,1008.4
2017-09-15T03:08:50.474Z,1008.4
2017-09-15T03:09:51.887Z,1008.4
2017-09-15T03:10:53.301Z,1008.4
2017-09-15T03:11:54.717Z,1008.4
2017-09-15T03:12:56.132Z,1008.3
2017-09-15T03:13:57.547Z,1008.3
2017-09-15T03:14:58.961Z,1008.3
2017-09-15T03:16:00.380Z,1008.4
2017-09-15T03:17:01.796Z,1008.4
2017-09-15T03:18:03.211Z,1008.4
2017-09-15T03:19:04.629Z,1008.4
2017-09-15T03:20:06.047Z,1008.3
2017-09-15T03:21:07.464Z,1008.4
2017-09-15T03:22:08.877Z,1008.4
2017-09-15T03:23:10.295Z,1008.4
2017-09-15T03:24:11.712Z,1008.4
2017-09-15T03:25:13.128Z,1008.3
2017-09-15T03:26:14.552Z,1008.4
2017-09-15T03:27:15.964Z,1008.4
2017-09-15T03:28:17.379Z,1008.3
2017-09-15T03:29:18.793Z,1008.4
2017-09-15T03:30:20.208Z,1008.4
2017-09-15T03:31:21.631Z,1008.4
2017-09-15T03:32:23.038Z,1008.4
2017-09-15T03:33:24.455Z,1008.4
2017-09-15T03:34:25.869Z,1008.4
2017-09-15T03:35:27.292Z,1008.4
2017-09-15T03:36:28.697Z,1008.5
2017-09-15T03:37:30.112Z,1008.4
2017-09-15T03:38:31.527Z,1008.5
2017-09-15T03:39:32.945Z,1008.4
2017-09-15T03:40:34.356Z,1008.4
2017-09-15T03:41:35.775Z,1008.4
2017-09-15T03:42:37.191Z,1008.4
2017-09-15T03:43:38.605Z,1008.4
2017-09-15T03:44:40.030Z,1008.4
2017-09-15T03:45:41.444Z,1008.4
2017-09-15T03:46:42.860Z,1008.4
2017-09-15T03:47:44.273Z,1008.4
2017-09-15T03:48:45.691Z,1008.4
2017-09-15T03:49:47.106Z,1008.4
2017-09-15T03:50:48.520Z,1008.4
2017-09-15T03:51:49.936Z,1008.4
2017-09-15T03:52:51.350Z,1008.4
2017-09-15T03:53:52.763Z,1008.4
2017-09-15T03:54:54.179Z,1008.4
2017-09-15T03:55:55.596Z,1008.4
2017-09-15T03:56:57.010Z,1008.4
2017-09-15T03:57:58.428Z,1008.4
2017-09-15T03:58:59.855Z,1008.4
2017-09-15T04:00:01.272Z,1008.4
2017-09-15T04:01:02.689Z,1008.4
2017-09-15T04:02:04.126Z,1008.4
2017-09-15T04:03:05.543Z,1008.4
2017-09-15T04:04:06.962Z,1008.4
2017-09-15T04:05:08.378Z,1008.4
2017-09-15T04:06:09.793Z,1008.4
2017-09-15T04:07:11.208Z,1008.4
2017-09-15T04:08:12.627Z,1008.4
2017-09-15T04:09:14.038Z,1008.4
2017-09-15T04:10:15.491Z,1008.4
2017-09-15T04:11:16.906Z,1008.4
2017-09-15T04:12:18.324Z,1008.4
2017-09-15T04:13:19.742Z,1008.4
2017-09-15T04:14:21.155Z,1008.4
2017-09-15T04:15:22.571Z,1008.4
2017-09-15T04:16:23.986Z,1008.4
2017-09-15T04:17:25.404Z,1008.4
2017-09-15T04:18:26.821Z,1008.4
2017-09-15T04:19:28.240Z,1008.4
2017-09-15T04:20:29.654Z,1008.4
2017-09-15T04:21:31.071Z,1008.4
2017-09-15T04:22:32.488Z,1008.4
2017-09-15T04:23:33.904Z,1008.4
2017-09-15T04:24:35.319Z,1008.4
2017-09-15T04:25:36.734Z,1008.4
2017-09-15T04:26:38.151Z,1008.4
2017-09-15T04:27:39.603Z,1008.4
2017-09-15T04:28:40.983Z,1008.4
2017-09-15T04:29:42.399Z,1008.4
2017-09-15T04:30:43.815Z,1008.4
2017-09-15T04:31:45.228Z,1008.4
2017-09-15T04:32:46.644Z,1008.4
2017-09-15T04:33:48.057Z,1008.4
2017-09-15T04:34:49.476Z,1008.4
2017-09-15T04:35:50.885Z,1008.3
2017-09-15T04:36:52.305Z,1008.4
2017-09-15T04:37:53.722Z,1008.4
2017-09-15T04:38:55.138Z,1008.4
2017-09-15T04:39:56.555Z,1008.4
2017-09-15T04:40:57.970Z,1008.4
2017-09-15T04:41:59.387Z,1008.4
2017-09-15T04:43:00.807Z,1008.3
2017-09-15T04:44:02.223Z,1008.3
2017-09-15T04:45:03.638Z,1008.3
2017-09-15T04:46:05.052Z,1008.3
2017-09-15T04:47:06.468Z,1008.3
2017-09-15T04:48:07.888Z,1008.3
2017-09-15T04:49:09.311Z,1008.3
2017-09-15T04:50:10.727Z,1008.2
2017-09-15T04:51:12.145Z,1008.2
2017-09-15T04:52:13.562Z,1008.2
2017-09-15T04:53:14.975Z,1008.2
2017-09-15T04:54:16.395Z,1008.2
2017-09-15T04:55:17.815Z,1008.2
2017-09-15T04:56:19.233Z,1008.2
2017-09-15T04:57:20.654Z,1008.2
2017-09-15T04:58:22.072Z,1008.2
2017-09-15T04:59:23.488Z,1008.2
2017-09-15T05:00:24.907Z,1008.1
2017-09-15T05:01:26.321Z,1008.1
2017-09-15T05:02:27.737Z,1008.1
2017-09-15T05:03:29.152Z,1008.1
2017-09-15T05:04:30.566Z,1008.1
2017-09-15T05:05:31.984Z,1008.1
2017-09-15T05:06:33.394Z,1008.1
2017-09-15T05:07:34.813Z,1008.1
2017-09-15T05:08:36.230Z,1008.1
2017-09-15T05:09:37.644Z,1008.1
2017-09-15T05:10:39.059Z,1008.0
2017-09-15T05:11:40.505Z,1008.0
2017-09-15T05:12:41.926Z,1008.1
2017-09-15T05:13:43.344Z,1008.1
2017-09-15T05:14:44.761Z,1008.0
2017-09-15T05:15:46.179Z,1008.0
2017-09-15T05:16:47.595Z,1008.0
2017-09-15T05:17:49.014Z,1008.0
2017-09-15T05:18:50.431Z,1008.0
2017-09-15T05:19:51.847Z,1008.0
2017-09-15T05:20:53.263Z,1008.0
2017-09-15T05:21:54.683Z,1008.0
2017-09-15T05:22:56.090Z,1008.0
2017-09-15T05:23:57.506Z,1008.0
2017-09-15T05:24:58.923Z,1008.0
2017-09-15T05:26:00.336Z,1008.0
2017-09-15T05:27:01.749Z,1008.0
2017-09-15T05:28:03.165Z,1008.0
2017-09-15T05:29:04.599Z,1008.0
2017-09-15T05:30:06.016Z,1008.0
2017-09-15T05:31:07.434Z,1008.0
2017-09-15T05:32:08.859Z,1008.0
2017-09-15T05:33:10.269Z,1008.0
2017-09-15T05:34:11.686Z,1008.0
2017-09-15T05:35:13.102Z,1008.0
2017-09-15T05:36:14.516Z,1007.9
2017-09-15T05:37:15.935Z,1007.9
2017-09-15T05:38:17.351Z,1007.9
2017-09-15T05:39:18.766Z,1007.9
2017-09-15T05:40:20.181Z,1007.9
2017-09-15T05:41:21.600Z,1007.9
2017-09-15T05:42:23.016Z,1007.8
2017-09-15T05:43:24.433Z,1007.9
2017-09-15T05:44:25.845Z,1007.9
2017-09-15T05:45:27.260Z,1007.9
2017-09-15T05:46:28.676Z,1007.9
2017-09-15T05:47:30.091Z,1007.9
2017-09-15T05:48:31.506Z,1007.9
2017-09-15T05:49:32.940Z,1007.8
2017-09-15T05:50:34.361Z,1007.8
2017-09-15T05:51:35.777Z,1007.8
2017-09-15T05:52:37.194Z,1007.8
2017-09-15T05:53:38.611Z,1007.8
2017-09-15T05:54:40.028Z,1007.8
2017-09-15T05:55:41.449Z,1007.8
2017-09-15T05:56:42.861Z,1007.8
2017-09-15T05:57:44.275Z,1007.8
2017-09-15T05:58:45.693Z,1007.8
2017-09-15T05:59:47.109Z,1007.8
2017-09-15T06:00:48.525Z,1007.8
2017-09-15T06:01:49.943Z,1007.8
2017-09-15T06:02:51.356Z,1007.8
2017-09-15T06:03:52.777Z,1007.8
2017-09-15T06:04:54.194Z,1007.8
2017-09-15T06:05:55.610Z,1007.8
2017-09-15T06:06:57.026Z,1007.7
2017-09-15T06:07:58.446Z,1007.8
2017-09-15T06:08:59.860Z,1007.7
2017-09-15T06:10:01.278Z,1007.7
2017-09-15T06:11:02.696Z,1007.7
2017-09-15T06:12:04.131Z,1007.7
2017-09-15T06:13:05.548Z,1007.8
2017-09-15T06:14:06.965Z,1007.7
2017-09-15T06:15:08.382Z,1007.7
2017-09-15T06:16:09.807Z,1007.7
2017-09-15T06:17:11.223Z,1007.7
2017-09-15T06:18:12.648Z,1007.7
2017-09-15T06:19:14.064Z,1007.7
2017-09-15T06:20:15.479Z,1007.8
2017-09-15T06:21:16.890Z,1007.8
2017-09-15T06:22:18.305Z,1007.7
2017-09-15T06:23:19.722Z,1007.7
2017-09-15T06:24:21.138Z,1007.8
2017-09-15T06:25:22.556Z,1007.8
2017-09-15T06:26:23.973Z,1007.8
2017-09-15T06:27:25.394Z,1007.7
2017-09-15T06:28:26.806Z,1007.8
2017-09-15T06:29:28.224Z,1007.8
2017-09-15T06:30:29.643Z,1007.8
2017-09-15T06:31:31.062Z,1007.7
2017-09-15T06:32:32.479Z,1007.8
2017-09-15T06:33:33.896Z,1007.8
2017-09-15T06:34:35.312Z,1007.8
2017-09-15T06:35:36.728Z,1007.8
2017-09-15T06:36:38.146Z,1007.7
2017-09-15T06:37:39.564Z,1007.7
2017-09-15T06:38:40.979Z,1007.7
2017-09-15T06:39:42.411Z,1007.7
2017-09-15T06:40:43.837Z,1007.7
2017-09-15T06:41:45.279Z,1007.7
2017-09-15T06:42:46.673Z,1007.7
2017-09-15T06:43:48.089Z,1007.7
2017-09-15T06:44:49.505Z,1007.7
2017-09-15T06:45:50.922Z,1007.7
2017-09-15T06:46:52.340Z,1007.7
2017-09-15T06:47:53.757Z,1007.7
2017-09-15T06:48:55.176Z,1007.7
2017-09-15T06:49:56.593Z,1007.7
2017-09-15T06:50:58.013Z,1007.7
2017-09-15T06:51:59.431Z,1007.8
2017-09-15T06:53:00.849Z,1007.8
2017-09-15T06:54:02.269Z,1007.8
2017-09-15T06:55:03.686Z,1007.8
2017-09-15T06:56:05.102Z,1007.8
2017-09-15T06:57:06.517Z,1007.8
2017-09-15T06:58:07.934Z,1007.8
2017-09-15T06:59:09.353Z,1007.8
2017-09-15T07:00:10.770Z,1007.8
2017-09-15T07:01:12.187Z,1007.8
2017-09-15T07:02:13.604Z,1007.8
2017-09-15T07:03:15.025Z,1007.8
2017-09-15T07:04:16.444Z,1007.8
2017-09-15T07:05:17.860Z,1007.8
2017-09-15T07:06:19.278Z,1007.8
2017-09-15T07:07:20.695Z,1007.8
2017-09-15T07:08:22.116Z,1007.8
2017-09-15T07:09:23.527Z,1007.8
2017-09-15T07:10:24.943Z,1007.8
2017-09-15T07:11:26.398Z,1007.8
2017-09-15T07:12:27.776Z,1007.8
2017-09-15T07:13:29.192Z,1007.8
2017-09-15T07:14:30.613Z,1007.8
2017-09-15T07:15:32.027Z,1007.9
2017-09-15T07:16:33.447Z,1007.9
2017-09-15T07:17:34.865Z,1007.9
2017-09-15T07:18:36.283Z,1007.9
2017-09-15T07:19:37.701Z,1007.9
2017-09-15T07:20:39.115Z,1007.9
2017-09-15T07:21:40.532Z,1007.9
2017-09-15T07:22:41.950Z,1007.9
2017-09-15T07:23:43.366Z,1007.9
2017-09-15T07:24:44.784Z,1007.9
2017-09-15T07:25:46.204Z,1007.9
2017-09-15T07:26:47.621Z,1007.9
2017-09-15T07:27:49.041Z,1007.9
2017-09-15T07:28:50.453Z,1007.9
2017-09-15T07:29:51.870Z,1007.9
2017-09-15T07:30:53.287Z,1008.0
2017-09-15T07:31:54.704Z,1007.9
2017-09-15T07:32:56.125Z,1007.9
2017-09-15T07:33:57.545Z,1007.9
2017-09-15T07:34:58.962Z,1007.9
2017-09-15T07:36:00.379Z,1007.9
2017-09-15T07:37:01.798Z,1007.9
2017-09-15T07:38:03.212Z,1007.9
2017-09-15T07:39:04.629Z,1007.9
2017-09-15T07:40:06.055Z,1007.9
2017-09-15T07:41:07.474Z,1007.9
2017-09-15T07:42:08.890Z,1008.0
2017-09-15T07:43:10.320Z,1008.0
2017-09-15T07:44:11.733Z,1008.0
2017-09-15T07:45:13.149Z,1008.0
2017-09-15T07:46:14.566Z,1008.0
2017-09-15T07:47:15.986Z,1008.0
2017-09-15T07:48:17.402Z,1008.0
2017-09-15T07:49:18.829Z,1008.0
2017-09-15T07:50:20.243Z,1008.0
2017-09-15T07:51:21.656Z,1008.0
2017-09-15T07:52:23.070Z,1008.1
2017-09-15T07:53:24.487Z,1008.1
2017-09-15T07:54:25.908Z,1008.0
2017-09-15T07:55:27.338Z,1008.0
2017-09-15T07:56:28.754Z,1008.1
2017-09-15T07:57:30.171Z,1008.1
2017-09-15T07:58:31.591Z,1008.1
2017-09-15T07:59:33.005Z,1008.1
2017-09-15T08:00:34.433Z,1008.1
2017-09-15T08:01:35.840Z,1008.1
2017-09-15T08:02:37.254Z,1008.1
2017-09-15T08:03:38.671Z,1008.1
2017-09-15T08:04:40.087Z,1008.1
2017-09-15T08:05:41.504Z,1008.1
2017-09-15T08:06:42.924Z,1008.1
2017-09-15T08:07:44.394Z,1008.1
2017-09-15T08:08:45.821Z,1008.1
2017-09-15T08:09:47.237Z,1008.1
2017-09-15T08:10:48.653Z,1008.1
2017-09-15T08:11:50.069Z,1008.1
2017-09-15T08:12:51.486Z,1008.1
2017-09-15T08:13:52.910Z,1008.1
2017-09-15T08:14:54.323Z,1008.1
2017-09-15T08:15:55.742Z,1008.2
2017-09-15T08:16:57.170Z,1008.2
2017-09-15T08:17:58.590Z,1008.1
2017-09-15T08:18:59.992Z,1008.1
2017-09-15T08:20:01.429Z,1008.1
2017-09-15T08:21:02.845Z,1008.2
2017-09-15T08:22:04.267Z,1008.2
2017-09-15T08:23:05.681Z,1008.2
2017-09-15T08:24:07.102Z,1008.2
2017-09-15T08:25:08.521Z,1008.2
2017-09-15T08:26:09.935Z,1008.2
2017-09-15T08:27:11.358Z,1008.2
2017-09-15T08:28:12.777Z,1008.1
2017-09-15T08:29:14.192Z,1008.2
2017-09-15T08:30:15.610Z,1008.1
2017-09-15T08:31:17.027Z,1008.1
2017-09-15T08:32:18.445Z,1008.1
2017-09-15T08:33:19.868Z,1008.1
2017-09-15T08:34:21.276Z,1008.1
2017-09-15T08:35:22.704Z,1008.1
2017-09-15T08:36:24.128Z,1008.1
2017-09-15T08:37:25.545Z,1008.1
2017-09-15T08:38:26.964Z,1008.1
2017-09-15T08:39:28.381Z,1008.1
2017-09-15T08:40:29.795Z,1008.1
2017-09-15T08:41:31.214Z,1008.1
2017-09-15T08:42:32.648Z,1008.1
2017-09-15T08:43:34.067Z,1008.1
2017-09-15T08:44:35.484Z,1008.1
2017-09-15T08:45:36.905Z,1008.1
2017-09-15T08:46:38.323Z,1008.1
2017-09-15T08:47:39.739Z,1008.1
2017-09-15T08:48:41.157Z,1008.0
2017-09-15T08:49:42.573Z,1008.1
2017-09-15T08:50:43.991Z,1008.1
2017-09-15T08:51:45.407Z,1008.1
2017-09-15T08:52:46.827Z,1008.0
2017-09-15T08:53:48.247Z,1008.1
2017-09-15T08:54:49.664Z,1008.0
2017-09-15T08:55:51.078Z,1008.1
2017-09-15T08:56:52.494Z,1008.1
2017-09-15T08:57:53.943Z,1008.1
2017-09-15T08:58:55.366Z,1008.1
2017-09-15T08:59:56.785Z,1008.1
2017-09-15T09:00:58.201Z,1008.1
2017-09-15T09:01:59.622Z,1008.0
2017-09-15T09:03:01.042Z,1008.0
2017-09-15T09:04:02.460Z,1008.0
2017-09-15T09:05:03.877Z,1008.0
2017-09-15T09:06:05.293Z,1008.0
2017-09-15T09:07:06.711Z,1008.0
2017-09-15T09:08:08.127Z,1008.0
2017-09-15T09:09:09.545Z,1007.9
2017-09-15T09:10:10.963Z,1007.9
2017-09-15T09:11:12.379Z,1007.9
2017-09-15T09:12:13.796Z,1007.9
2017-09-15T09:13:15.213Z,1007.9
2017-09-15T09:14:16.630Z,1007.8
2017-09-15T09:15:18.047Z,1007.9
2017-09-15T09:16:19.463Z,1007.8
2017-09-15T09:17:20.879Z,1007.8
2017-09-15T09:18:22.297Z,1007.8
2017-09-15T09:19:23.718Z,1007.8
2017-09-15T09:20:25.140Z,1007.8
2017-09-15T09:21:26.557Z,1007.7
2017-09-15T09:22:27.976Z,1007.7
2017-09-15T09:23:29.413Z,1007.7
2017-09-15T09:24:30.833Z,1007.7
2017-09-15T09:25:32.252Z,1007.8
2017-09-15T09:26:33.667Z,1007.8
2017-09-15T09:27:35.089Z,1007.7
2017-09-15T09:28:36.506Z,1007.7
2017-09-15T09:29:37.924Z,1007.7
2017-09-15T09:30:39.338Z,1007.7
2017-09-15T09:31:40.758Z,1007.6
2017-09-15T09:32:42.178Z,1007.7
2017-09-15T09:33:43.592Z,1007.6
2017-09-15T09:34:45.013Z,1007.7
2017-09-15T09:35:46.427Z,1007.6
2017-09-15T09:36:47.847Z,1007.7
2017-09-15T09:37:49.263Z,1007.7
2017-09-15T09:38:50.681Z,1007.6
2017-09-15T09:39:52.108Z,1007.6
2017-09-15T09:40:53.520Z,1007.6
2017-09-15T09:41:54.936Z,1007.6
2017-09-15T09:42:56.353Z,1007.6
2017-09-15T09:43:57.771Z,1007.5
2017-09-15T09:44:59.194Z,1007.6
2017-09-15T09:46:00.617Z,1007.5
2017-09-15T09:47:02.033Z,1007.5
2017-09-15T09:48:03.457Z,1007.5
2017-09-15T09:49:04.872Z,1007.4
2017-09-15T09:50:06.306Z,1007.4
2017-09-15T09:51:07.712Z,1007.4
2017-09-15T09:52:09.131Z,1007.4
2017-09-15T09:53:10.549Z,1007.4
2017-09-15T09:54:11.965Z,1007.5
2017-09-15T09:55:13.383Z,1007.5
2017-09-15T09:56:14.799Z,1007.5
2017-09-15T09:57:16.217Z,1007.5
2017-09-15T09:58:17.635Z,1007.6
2017-09-15T09:59:19.052Z,1007.5
2017-09-15T10:00:20.469Z,1007.6
2017-09-15T10:01:21.883Z,1007.6
2017-09-15T10:02:23.303Z,1007.6
2017-09-15T10:03:24.720Z,1007.7
2017-09-15T10:04:26.137Z,1007.7
2017-09-15T10:05:27.553Z,1007.7
2017-09-15T10:06:28.966Z,1007.7
2017-09-15T10:07:30.390Z,1007.8
2017-09-15T10:08:31.807Z,1007.8
2017-09-15T10:09:33.226Z,1007.7
2017-09-15T10:10:34.645Z,1007.7
2017-09-15T10:11:36.063Z,1007.7
2017-09-15T10:12:37.481Z,1007.7
2017-09-15T10:13:38.897Z,1007.7
2017-09-15T10:14:40.312Z,1007.7
2017-09-15T10:15:41.737Z,1007.7
2017-09-15T10:16:43.148Z,1007.7
2017-09-15T10:17:44.567Z,1007.7
2017-09-15T10:18:45.985Z,1007.7
2017-09-15T10:19:47.419Z,1007.7
2017-09-15T10:20:48.828Z,1007.7
2017-09-15T10:21:50.250Z,1007.7
2017-09-15T10:22:51.666Z,1007.8
2017-09-15T10:23:53.087Z,1007.9
2017-09-15T10:24:54.504Z,1007.9
2017-09-15T10:25:55.919Z,1007.9
2017-09-15T10:26:57.352Z,1008.0
2017-09-15T10:27:58.770Z,1008.0
2017-09-15T10:29:00.187Z,1008.0
2017-09-15T10:30:01.607Z,1007.9
2017-09-15T10:31:03.034Z,1007.9
2017-09-15T10:32:04.452Z,1007.8
2017-09-15T10:33:05.867Z,1007.8
2017-09-15T10:34:07.285Z,1007.8
2017-09-15T10:35:08.709Z,1007.8
2017-09-15T10:36:10.129Z,1007.8
2017-09-15T10:37:11.555Z,1007.8
2017-09-15T10:38:12.974Z,1007.8
2017-09-15T10:39:14.418Z,1007.8
2017-09-15T10:40:15.812Z,1007.8
2017-09-15T10:41:17.227Z,1007.8
2017-09-15T10:42:18.647Z,1007.8
2017-09-15T10:43:20.065Z,1007.7
2017-09-15T10:44:21.484Z,1007.7
2017-09-15T10:45:22.904Z,1007.7
2017-09-15T10:46:24.323Z,1007.7
2017-09-15T10:47:25.742Z,1007.7
2017-09-15T10:48:27.168Z,1007.7
2017-09-15T10:49:28.584Z,1007.8
2017-09-15T10:50:30.004Z,1007.8
2017-09-15T10:51:31.421Z,1007.8
2017-09-15T10:52:32.841Z,1007.8
2017-09-15T10:53:34.259Z,1007.8
2017-09-15T10:54:35.676Z,1007.8
2017-09-15T10:55:37.096Z,1007.8
2017-09-15T10:56:38.512Z,1007.8
2017-09-15T10:57:39.940Z,1007.7
2017-09-15T10:58:41.395Z,1007.7
2017-09-15T10:59:42.778Z,1007.7
2017-09-15T11:00:44.198Z,1007.7
2017-09-15T11:01:45.627Z,1007.7
2017-09-15T11:02:47.041Z,1007.7
2017-09-15T11:03:48.491Z,1007.7
2017-09-15T11:04:49.910Z,1007.6
2017-09-15T11:05:51.327Z,1007.6
2017-09-15T11:06:52.745Z,1007.6
2017-09-15T11:07:54.163Z,1007.7
2017-09-15T11:08:55.580Z,1007.6
2017-09-15T11:09:56.997Z,1007.6
2017-09-15T11:10:58.419Z,1007.6
2017-09-15T11:11:59.839Z,1007.6
2017-09-15T11:13:01.260Z,1007.6
2017-09-15T11:14:02.678Z,1007.6
2017-09-15T11:15:04.095Z,1007.6
2017-09-15T11:16:05.511Z,1007.6
2017-09-15T11:17:06.932Z,1007.6
2017-09-15T11:18:08.351Z,1007.6
2017-09-15T11:19:09.768Z,1007.6
2017-09-15T11:20:11.188Z,1007.6
2017-09-15T11:21:12.606Z,1007.6
2017-09-15T11:22:14.027Z,1007.6
2017-09-15T11:23:15.444Z,1007.6
2017-09-15T11:24:16.864Z,1007.6
2017-09-15T11:25:18.288Z,1007.6
2017-09-15T11:26:19.703Z,1007.6
2017-09-15T11:27:21.119Z,1007.6
2017-09-15T11:28:22.540Z,1007.6
2017-09-15T11:29:23.958Z,1007.6
2017-09-15T11:30:25.375Z,1007.6
2017-09-15T11:31:26.794Z,1007.6
2017-09-15T11:32:28.210Z,1007.6
2017-09-15T11:33:29.627Z,1007.7
2017-09-15T11:34:31.047Z,1007.6
2017-09-15T11:35:32.462Z,1007.6
2017-09-15T11:36:33.892Z,1007.6
2017-09-15T11:37:35.311Z,1007.6
2017-09-15T11:38:36.727Z,1007.6
2017-09-15T11:39:38.145Z,1007.6
2017-09-15T11:40:39.562Z,1007.6
2017-09-15T11:41:40.982Z,1007.7
2017-09-15T11:42:42.404Z,1007.7
2017-09-15T11:43:43.820Z,1007.7
2017-09-15T11:44:45.242Z,1007.8
2017-09-15T11:45:46.660Z,1007.8
2017-09-15T11:46:48.077Z,1007.8
2017-09-15T11:47:49.497Z,1007.8
2017-09-15T11:48:50.916Z,1007.8
2017-09-15T11:49:52.338Z,1007.9
2017-09-15T11:50:53.752Z,1007.9
2017-09-15T11:51:55.167Z,1007.8
2017-09-15T11:52:56.585Z,1007.9
2017-09-15T11:53:58.002Z,1007.8
2017-09-15T11:54:59.420Z,1007.8
2017-09-15T11:56:00.845Z,1007.8
2017-09-15T11:57:02.262Z,1007.8
2017-09-15T11:58:03.695Z,1007.8
2017-09-15T11:59:05.126Z,1007.8
2017-09-15T12:00:06.532Z,1007.8
2017-09-15T12:01:07.956Z,1007.8
2017-09-15T12:02:09.367Z,1007.7
2017-09-15T12:03:10.790Z,1007.6
2017-09-15T12:04:12.207Z,1007.7
2017-09-15T12:05:13.626Z,1007.6
2017-09-15T12:06:15.042Z,1007.6
2017-09-15T12:07:16.461Z,1007.6
2017-09-15T12:08:17.881Z,1007.5
2017-09-15T12:09:19.303Z,1007.5
2017-09-15T12:10:20.720Z,1007.5
2017-09-15T12:11:22.139Z,1007.5
2017-09-15T12:12:23.558Z,1007.5
2017-09-15T12:13:24.977Z,1007.5
2017-09-15T12:14:26.396Z,1007.5
2017-09-15T12:15:27.814Z,1007.5
2017-09-15T12:16:29.232Z,1007.5
2017-09-15T12:17:30.652Z,1007.4
2017-09-15T12:18:32.070Z,1007.5
2017-09-15T12:19:33.491Z,1007.5
2017-09-15T12:20:34.912Z,1007.4
2017-09-15T12:21:36.331Z,1007.4
2017-09-15T12:22:37.748Z,1007.4
2017-09-15T12:23:39.166Z,1007.4
2017-09-15T12:24:40.583Z,1007.4
2017-09-15T12:25:42.010Z,1007.4
2017-09-15T12:26:43.431Z,1007.4
2017-09-15T12:27:44.847Z,1007.4
2017-09-15T12:28:46.266Z,1007.4
2017-09-15T12:29:47.695Z,1007.3
2017-09-15T12:30:49.111Z,1007.4
2017-09-15T12:31:50.530Z,1007.3
2017-09-15T12:32:51.948Z,1007.4
2017-09-15T12:33:53.370Z,1007.3
2017-09-15T12:34:54.789Z,1007.3
2017-09-15T12:35:56.222Z,1007.3
2017-09-15T12:36:57.635Z,1007.3
2017-09-15T12:37:59.054Z,1007.3
2017-09-15T12:39:00.476Z,1007.4
2017-09-15T12:40:01.891Z,1007.4
2017-09-15T12:41:03.306Z,1007.4
2017-09-15T12:42:04.720Z,1007.4
2017-09-15T12:43:06.150Z,1007.4
2017-09-15T12:44:07.568Z,1007.4
2017-09-15T12:45:08.988Z,1007.4
2017-09-15T12:46:10.402Z,1007.5